Time;durP1;ratioP1;P1;durP2;ratioP2;P2;SDS_P1;SDS_P2;PMS_P1;PMS_P2;Temp;Humidity;BMP_temperature;BMP_pressure;BME280_temperature;BME280_humidity;BME280_pressure;Samples;Min_cycle;Max_cycle;Signal;HPM_P1;HPM_P2
2022/04/16 00:00:06;;;;;;;7.20;2.90;;;;;13.22;97326.80;;;;110748;1251;41375;-60
2022/04/16 00:02:55;;;;;;;8.40;3.30;;;;;13.30;97321.60;;;;110652;1250;41190;-60
2022/04/16 00:05:25;;;;;;;9.10;3.20;;;;;13.26;97328.20;;;;110621;1251;41152;-60
2022/04/16 00:08:07;;;;;;;8.30;3.20;;;;;13.26;97334.20;;;;110687;1251;41611;-60
2022/04/16 00:10:39;;;;;;;9.30;3.40;;;;;13.24;97328.80;;;;110738;1250;41127;-60
2022/04/16 00:13:08;;;;;;;7.30;3.20;;;;;13.20;97326.40;;;;110623;1251;41943;-60
2022/04/16 00:15:38;;;;;;;9.30;3.20;;;;;13.20;97332.60;;;;110575;1251;41169;-60
2022/04/16 00:18:08;;;;;;;14.80;3.80;;;;;13.20;97330.40;;;;110568;1251;42280;-60
2022/04/16 00:20:42;;;;;;;8.60;3.30;;;;;13.20;97325.40;;;;110608;1251;41245;-60
2022/04/16 00:23:12;;;;;;;9.60;3.30;;;;;13.20;97329.00;;;;110613;1251;41192;-60
2022/04/16 00:25:42;;;;;;;8.80;3.00;;;;;13.20;97326.00;;;;110600;1250;41154;-60
2022/04/16 00:28:12;;;;;;;7.70;3.30;;;;;13.20;97327.00;;;;110612;1250;41155;-60
2022/04/16 00:30:42;;;;;;;9.50;3.20;;;;;13.14;97325.20;;;;110561;1252;41137;-60
2022/04/16 00:33:12;;;;;;;8.10;3.10;;;;;13.10;97321.00;;;;110673;1251;42173;-60
2022/04/16 00:35:43;;;;;;;8.00;2.90;;;;;13.10;97317.80;;;;110573;1251;41380;-60
2022/04/16 00:38:14;;;;;;;8.50;3.30;;;;;13.10;97313.60;;;;110587;1251;41802;-60
2022/04/16 00:40:44;;;;;;;10.50;3.30;;;;;13.02;97312.40;;;;110574;1251;41216;-60
2022/04/16 00:43:24;;;;;;;7.00;3.00;;;;;13.04;97315.00;;;;110622;1251;41149;-59
2022/04/16 00:45:55;;;;;;;;;;;;;13.10;97319.60;;;;110590;1251;41910;-59
2022/04/16 00:48:26;;;;;;;7.80;2.90;;;;;13.02;97323.60;;;;110656;1250;41143;-59
2022/04/16 00:50:56;;;;;;;9.70;3.20;;;;;13.02;97319.00;;;;110694;1249;41950;-59
2022/04/16 00:53:27;;;;;;;8.20;2.90;;;;;13.00;97317.00;;;;110703;1251;41156;-60
2022/04/16 00:55:58;;;;;;;9.00;3.00;;;;;13.00;97311.40;;;;110725;1250;41201;-59
2022/04/16 00:58:28;;;;;;;;;;;;;13.00;97311.20;;;;110725;1250;41427;-59
2022/04/16 01:00:58;;;;;;;8.60;2.80;;;;;12.90;97307.00;;;;110566;1252;42376;-59
2022/04/16 01:03:28;;;;;;;7.20;2.90;;;;;12.90;97305.60;;;;110741;1250;41167;-59
2022/04/16 01:05:58;;;;;;;8.40;3.00;;;;;12.90;97302.80;;;;110589;1251;41188;-59
2022/04/16 01:08:28;;;;;;;8.90;3.50;;;;;12.80;97306.40;;;;110734;1249;40756;-59
2022/04/16 01:10:58;;;;;;;9.70;2.70;;;;;12.80;97311.80;;;;110723;1251;41655;-59
2022/04/16 01:13:28;;;;;;;7.80;2.70;;;;;12.80;97310.40;;;;110723;1250;41193;-59
2022/04/16 01:15:58;;;;;;;7.90;3.00;;;;;12.80;97306.60;;;;110706;1250;42196;-59
2022/04/16 01:18:28;;;;;;;9.40;3.40;;;;;12.70;97301.20;;;;110592;1252;41273;-59
2022/04/16 01:21:01;;;;;;;9.10;3.40;;;;;12.70;97304.60;;;;110624;1249;41149;-59
2022/04/16 01:23:32;;;;;;;10.20;4.20;;;;;12.70;97306.00;;;;110601;1252;42830;-59
2022/04/16 01:26:02;;;;;;;9.60;3.80;;;;;12.60;97314.60;;;;110720;1250;41329;-59
2022/04/16 01:28:31;;;;;;;8.00;3.40;;;;;12.48;97307.00;;;;110733;1250;41174;-59
2022/04/16 01:31:02;;;;;;;8.10;3.20;;;;;12.40;97305.80;;;;110734;1251;41242;-59
2022/04/16 01:33:31;;;;;;;7.40;2.90;;;;;12.40;97299.20;;;;110612;1251;42261;-59
2022/04/16 01:36:01;;;;;;;8.60;3.40;;;;;12.40;97292.40;;;;110683;1251;41917;-59
2022/04/16 01:38:30;;;;;;;8.70;2.90;;;;;12.40;97284.60;;;;110664;1249;41348;-59
2022/04/16 01:41:01;;;;;;;11.90;5.10;;;;;12.48;97290.60;;;;110664;1249;41169;-59
2022/04/16 01:43:31;;;;;;;13.00;5.50;;;;;12.48;97297.80;;;;110777;1249;41137;-59
2022/04/16 01:46:04;;;;;;;13.40;5.50;;;;;12.30;97303.20;;;;110663;1251;41173;-59
2022/04/16 01:48:33;;;;;;;8.50;3.50;;;;;12.30;97298.20;;;;110733;1249;41217;-59
2022/04/16 01:51:05;;;;;;;8.30;3.50;;;;;12.20;97296.20;;;;110698;1250;41888;-59
2022/04/16 01:53:35;;;;;;;12.70;4.00;;;;;12.20;97290.60;;;;110713;1250;41663;-59
2022/04/16 01:56:05;;;;;;;11.90;4.80;;;;;12.10;97297.60;;;;110692;1249;41163;-60
2022/04/16 01:58:38;;;;;;;11.40;5.20;;;;;12.00;97300.20;;;;110729;1250;42217;-59
2022/04/16 02:01:08;;;;;;;14.40;5.10;;;;;11.90;97303.80;;;;110725;1250;41149;-60
2022/04/16 02:03:38;;;;;;;;;;;;;11.84;97303.20;;;;110740;1250;41349;-60
2022/04/16 02:06:08;;;;;;;10.80;4.10;;;;;11.80;97295.80;;;;110665;1251;41164;-59
2022/04/16 02:08:39;;;;;;;10.70;3.60;;;;;11.86;97293.00;;;;110651;1251;41261;-60
2022/04/16 02:11:09;;;;;;;10.00;3.40;;;;;11.90;97292.80;;;;110781;1249;41268;-59
2022/04/16 02:13:39;;;;;;;9.10;3.80;;;;;11.90;97288.20;;;;110737;1249;41537;-60
2022/04/16 02:16:10;;;;;;;9.10;3.50;;;;;11.90;97284.20;;;;110594;1251;41530;-59
2022/04/16 02:18:39;;;;;;;8.50;3.60;;;;;11.90;97288.00;;;;110783;1250;41193;-59
2022/04/16 02:21:10;;;;;;;7.20;3.00;;;;;11.82;97282.40;;;;110739;1250;41466;-59
2022/04/16 02:23:41;;;;;;;7.80;3.10;;;;;11.80;97277.40;;;;110772;1250;41260;-59
2022/04/16 02:26:11;;;;;;;7.80;3.20;;;;;11.80;97274.80;;;;110723;1250;41639;-59
2022/04/16 02:28:43;;;;;;;7.50;3.00;;;;;11.80;97274.60;;;;110626;1251;41140;-59
2022/04/16 02:31:13;;;;;;;9.40;3.30;;;;;11.70;97270.60;;;;110606;1251;41181;-59
2022/04/16 02:33:44;;;;;;;8.10;3.20;;;;;11.70;97269.60;;;;110723;1249;41689;-60
2022/04/16 02:36:16;;;;;;;8.40;3.10;;;;;11.64;97276.80;;;;110733;1250;41543;-60
2022/04/16 02:38:47;;;;;;;8.10;3.40;;;;;11.60;97278.20;;;;110746;1249;41158;-60
2022/04/16 02:41:19;;;;;;;8.30;3.20;;;;;11.50;97282.40;;;;110723;1251;41968;-60
2022/04/16 02:43:49;;;;;;;11.00;3.30;;;;;11.50;97282.60;;;;110713;1250;41773;-60
2022/04/16 02:49:08;;;;;;;7.90;2.90;;;;;11.40;97278.00;;;;110695;1251;41322;-60
2022/04/16 02:51:38;;;;;;;9.60;3.40;;;;;11.32;97278.00;;;;110697;1251;41559;-59
2022/04/16 02:54:08;;;;;;;8.90;3.20;;;;;11.30;97276.00;;;;110669;1251;41639;-60
2022/04/16 02:56:37;;;;;;;8.90;3.50;;;;;11.30;97272.40;;;;110716;1251;41324;-60
2022/04/16 02:59:07;;;;;;;8.80;3.30;;;;;11.30;97273.60;;;;110731;1249;41619;-60
2022/04/16 03:01:36;;;;;;;8.70;3.40;;;;;11.30;97276.20;;;;110758;1249;41909;-60
2022/04/16 03:04:07;;;;;;;7.90;2.90;;;;;11.30;97274.40;;;;110558;1252;41395;-60
2022/04/16 03:06:37;;;;;;;9.80;3.10;;;;;11.28;97276.40;;;;110713;1251;41286;-60
2022/04/16 03:09:08;;;;;;;8.90;3.30;;;;;11.30;97270.60;;;;110737;1251;41173;-60
2022/04/16 03:11:38;;;;;;;8.40;3.00;;;;;11.30;97265.60;;;;110758;1249;41296;-60
2022/04/16 03:19:45;;;;;;;7.10;2.90;;;;;11.30;97269.40;;;;110856;1249;41825;-60
2022/04/16 03:22:15;;;;;;;6.80;2.80;;;;;11.20;97272.00;;;;110808;1250;41610;-60
2022/04/16 03:24:45;;;;;;;9.20;2.90;;;;;11.20;97274.00;;;;110845;1249;41498;-60
2022/04/16 03:27:16;;;;;;;5.80;2.40;;;;;11.10;97273.00;;;;110634;1251;41922;-60
2022/04/16 03:29:46;;;;;;;6.80;2.60;;;;;11.10;97272.60;;;;110731;1249;41522;-60
2022/04/16 03:32:15;;;;;;;8.90;2.90;;;;;11.10;97273.20;;;;110653;1251;41130;-60
2022/04/16 03:34:45;;;;;;;8.30;3.10;;;;;11.00;97273.60;;;;110718;1249;41161;-60
2022/04/16 03:37:14;;;;;;;6.80;3.00;;;;;11.00;97272.40;;;;110740;1250;41147;-60
2022/04/16 03:39:44;;;;;;;8.30;2.80;;;;;11.00;97268.00;;;;110552;1251;41155;-60
2022/04/16 03:42:14;;;;;;;6.40;2.60;;;;;11.00;97264.80;;;;110682;1249;41894;-60
2022/04/16 03:44:44;;;;;;;6.30;2.50;;;;;10.96;97263.00;;;;110658;1250;41145;-60
2022/04/16 03:47:14;;;;;;;5.90;2.30;;;;;10.98;97268.40;;;;110739;1249;41163;-60
2022/04/16 03:49:44;;;;;;;7.30;2.90;;;;;11.00;97265.20;;;;110853;1250;41172;-60
2022/04/16 03:52:13;;;;;;;6.60;2.30;;;;;10.90;97263.40;;;;110708;1249;41763;-60
2022/04/16 04:00:19;;;;;;;6.90;2.60;;;;;10.94;97276.00;;;;110737;1250;41266;-59
2022/04/16 04:02:49;;;;;;;9.20;3.30;;;;;10.96;97283.60;;;;110713;1251;42449;-59
2022/04/16 04:05:20;;;;;;;;;;;;;10.90;97283.20;;;;110630;1251;41172;-59
2022/04/16 04:07:52;;;;;;;9.10;3.40;;;;;10.90;97282.20;;;;110700;1249;40930;-59
2022/04/16 04:10:22;;;;;;;7.60;3.30;;;;;10.92;97288.20;;;;110626;1251;41253;-59
2022/04/16 04:12:51;;;;;;;8.60;3.10;;;;;11.00;97285.60;;;;110826;1249;40756;-59
2022/04/16 04:15:21;;;;;;;7.40;2.80;;;;;11.00;97289.60;;;;110684;1249;41172;-59
2022/04/16 04:17:51;;;;;;;5.50;2.30;;;;;11.00;97289.00;;;;110771;1249;41153;-59
2022/04/16 04:20:20;;;;;;;6.80;3.00;;;;;11.00;97287.00;;;;110696;1249;41381;-59
2022/04/16 04:22:49;;;;;;;9.60;4.00;;;;;11.00;97290.80;;;;110695;1251;42378;-59
2022/04/16 04:25:19;;;;;;;9.60;4.00;;;;;11.10;97297.00;;;;110723;1249;41728;-59
2022/04/16 04:27:48;;;;;;;10.60;4.20;;;;;11.10;97301.20;;;;110807;1251;41630;-59
2022/04/16 04:30:17;;;;;;;10.30;3.60;;;;;11.10;97303.60;;;;110666;1251;41199;-59
2022/04/16 04:32:47;;;;;;;12.90;4.60;;;;;11.10;97299.60;;;;110668;1251;41148;-59
2022/04/16 04:35:16;;;;;;;10.30;4.70;;;;;11.10;97298.00;;;;110706;1250;41906;-59
2022/04/16 04:37:45;;;;;;;12.00;4.80;;;;;11.12;97292.60;;;;110564;1252;41337;-59
2022/04/16 04:40:14;;;;;;;10.40;4.70;;;;;11.20;97297.80;;;;110817;1249;41379;-59
2022/04/16 04:42:43;;;;;;;9.00;4.10;;;;;11.20;97292.00;;;;110641;1252;41933;-59
2022/04/16 04:45:15;;;;;;;9.80;4.40;;;;;11.30;97295.00;;;;110786;1249;41174;-60
2022/04/16 04:47:44;;;;;;;10.30;4.90;;;;;11.30;97289.60;;;;110689;1251;41152;-59
2022/04/16 04:50:13;;;;;;;11.00;4.60;;;;;11.36;97294.40;;;;110667;1251;42222;-59
2022/04/16 04:52:43;;;;;;;10.60;4.50;;;;;11.40;97296.40;;;;110784;1249;41348;-60
2022/04/16 04:55:13;;;;;;;11.00;4.80;;;;;11.50;97300.80;;;;110797;1249;41465;-60
2022/04/16 04:57:42;;;;;;;16.20;5.40;;;;;11.50;97298.80;;;;110682;1250;41004;-59
2022/04/16 05:00:14;;;;;;;11.20;5.20;;;;;11.50;97299.00;;;;110898;1249;41259;-60
2022/04/16 05:02:45;;;;;;;12.00;5.90;;;;;11.60;97294.40;;;;110613;1251;41144;-61
2022/04/16 05:05:16;;;;;;;11.60;4.80;;;;;11.60;97294.80;;;;110794;1251;42004;-58
2022/04/16 05:07:45;;;;;;;12.40;5.50;;;;;11.62;97298.20;;;;110735;1249;41623;-60
2022/04/16 05:10:16;;;;;;;11.60;4.60;;;;;11.72;97300.80;;;;110601;1249;41200;-59
2022/04/16 05:12:45;;;;;;;10.90;4.70;;;;;11.90;97297.60;;;;110627;1251;41606;-59
2022/04/16 05:15:15;;;;;;;11.00;5.00;;;;;12.00;97294.40;;;;110780;1251;41162;-59
2022/04/16 05:17:44;;;;;;;14.50;5.60;;;;;12.10;97296.00;;;;110711;1251;41141;-59
2022/04/16 05:20:14;;;;;;;10.00;4.80;;;;;12.18;97297.40;;;;110824;1249;41153;-59
2022/04/16 05:22:44;;;;;;;11.50;5.10;;;;;12.22;97296.20;;;;110790;1250;41146;-59
2022/04/16 05:25:13;;;;;;;13.60;5.50;;;;;12.30;97306.40;;;;110838;1250;41133;-59
2022/04/16 05:27:42;;;;;;;16.50;6.20;;;;;12.40;97319.80;;;;110582;1252;41586;-59
2022/04/16 05:30:22;;;;;;;13.30;6.00;;;;;12.40;97321.00;;;;110651;1249;42512;-60
2022/04/16 05:32:52;;;;;;;19.80;6.50;;;;;12.30;97326.60;;;;110743;1250;41469;-60
2022/04/16 05:35:22;;;;;;;14.30;5.70;;;;;12.20;97326.80;;;;110815;1249;41177;-60
2022/04/16 05:37:51;;;;;;;11.20;5.60;;;;;12.20;97327.20;;;;110684;1251;42128;-60
2022/04/16 05:40:20;;;;;;;11.70;5.20;;;;;12.20;97324.60;;;;110800;1249;41291;-60
2022/04/16 05:42:49;;;;;;;12.00;5.70;;;;;12.20;97326.00;;;;110706;1251;41146;-60
2022/04/16 05:45:19;;;;;;;10.90;4.80;;;;;12.20;97321.20;;;;110748;1250;41842;-60
2022/04/16 05:47:48;;;;;;;10.20;4.70;;;;;12.30;97323.20;;;;110848;1248;42940;-60
2022/04/16 05:50:17;;;;;;;11.30;4.40;;;;;12.36;97326.60;;;;110732;1249;41155;-59
2022/04/16 05:52:46;;;;;;;14.30;4.80;;;;;12.50;97332.40;;;;110708;1251;41176;-60
2022/04/16 05:55:16;;;;;;;13.40;5.20;;;;;12.60;97337.80;;;;110681;1251;41263;-60
2022/04/16 05:57:45;;;;;;;9.50;4.30;;;;;12.68;97338.60;;;;110830;1249;41291;-60
2022/04/16 06:00:15;;;;;;;9.10;4.00;;;;;12.72;97336.80;;;;110783;1250;41382;-60
2022/04/16 06:02:45;;;;;;;12.30;5.40;;;;;12.90;97328.20;;;;110805;1249;41808;-60
2022/04/16 06:05:14;;;;;;;11.30;5.40;;;;;12.96;97329.60;;;;110723;1251;42533;-60
2022/04/16 06:07:44;;;;;;;10.80;4.50;;;;;13.04;97332.00;;;;110759;1249;41632;-60
2022/04/16 06:10:18;;;;;;;11.10;4.80;;;;;13.20;97329.60;;;;110583;1251;41997;-60
2022/04/16 06:12:47;;;;;;;9.00;4.10;;;;;13.30;97331.80;;;;110699;1250;42836;-61
2022/04/16 06:15:16;;;;;;;10.60;4.80;;;;;13.40;97336.80;;;;110819;1251;41160;-60
2022/04/16 06:17:46;;;;;;;12.50;4.40;;;;;13.50;97334.60;;;;110618;1252;41318;-60
2022/04/16 06:20:14;;;;;;;12.20;4.10;;;;;13.60;97335.00;;;;110714;1251;41506;-60
2022/04/16 06:22:43;;;;;;;9.10;4.00;;;;;13.68;97330.60;;;;110839;1249;41643;-60
2022/04/16 06:25:13;;;;;;;13.90;3.50;;;;;13.80;97331.80;;;;110815;1249;41162;-60
2022/04/16 06:27:42;;;;;;;9.70;3.90;;;;;13.90;97328.00;;;;110266;1251;606088;-60
2022/04/16 06:30:11;;;;;;;8.30;3.40;;;;;13.96;97330.20;;;;110700;1251;42675;-60
2022/04/16 06:32:40;;;;;;;9.20;4.00;;;;;14.08;97333.00;;;;110706;1251;41153;-61
2022/04/16 06:35:12;;;;;;;10.00;4.00;;;;;14.20;97333.40;;;;110708;1249;41145;-61
2022/04/16 06:37:44;;;;;;;10.10;4.40;;;;;14.30;97334.60;;;;110614;1249;41152;-60
2022/04/16 06:40:13;;;;;;;8.90;3.70;;;;;14.40;97331.80;;;;110811;1252;41131;-60
2022/04/16 06:42:43;;;;;;;7.70;3.20;;;;;14.60;97329.60;;;;110629;1252;41271;-58
2022/04/16 06:45:13;;;;;;;8.00;3.60;;;;;14.84;97330.60;;;;110842;1250;41136;-60
2022/04/16 06:47:43;;;;;;;9.30;3.70;;;;;15.10;97332.60;;;;110810;1250;41703;-60
2022/04/16 06:50:13;;;;;;;9.20;3.30;;;;;15.30;97326.00;;;;110796;1250;41609;-60
2022/04/16 06:52:46;;;;;;;9.70;3.50;;;;;15.50;97323.60;;;;110768;1250;40740;-60
2022/04/16 06:55:15;;;;;;;9.00;3.80;;;;;15.74;97320.80;;;;110833;1249;42258;-60
2022/04/16 06:57:45;;;;;;;11.60;3.70;;;;;15.90;97319.80;;;;110816;1250;41235;-60
2022/04/16 07:00:14;;;;;;;10.30;4.40;;;;;16.10;97319.00;;;;110749;1249;41118;-61
2022/04/16 07:02:43;;;;;;;11.70;4.60;;;;;16.10;97320.60;;;;110745;1249;41968;-61
2022/04/16 07:05:12;;;;;;;10.60;4.30;;;;;16.00;97313.20;;;;110818;1249;42638;-61
2022/04/16 07:07:41;;;;;;;9.80;4.30;;;;;15.82;97309.00;;;;110845;1250;41464;-63
2022/04/16 07:10:11;;;;;;;11.00;4.60;;;;;15.80;97306.80;;;;110798;1249;41150;-61
2022/04/16 07:12:45;;;;;;;10.20;3.70;;;;;15.70;97311.20;;;;110795;1250;41379;-60
2022/04/16 07:15:21;;;;;;;8.50;3.60;;;;;15.82;97310.80;;;;110773;1249;41155;-60
2022/04/16 07:18:00;;;;;;;9.00;3.60;;;;;16.10;97312.80;;;;110806;1250;41657;-60
2022/04/16 07:20:30;;;;;;;11.40;3.80;;;;;16.30;97308.40;;;;110814;1249;41778;-60
2022/04/16 07:23:04;;;;;;;9.70;4.20;;;;;16.50;97307.00;;;;110784;1250;41263;-60
2022/04/16 07:25:34;;;;;;;10.60;4.40;;;;;16.70;97305.40;;;;110794;1250;41152;-60
2022/04/16 07:28:04;;;;;;;9.70;4.00;;;;;16.80;97300.60;;;;110763;1249;41917;-60
2022/04/16 07:30:33;;;;;;;9.00;3.70;;;;;16.98;97301.20;;;;110826;1249;41267;-60
2022/04/16 07:33:03;;;;;;;13.90;4.10;;;;;17.10;97296.40;;;;110727;1251;41139;-61
2022/04/16 07:35:32;;;;;;;9.90;4.30;;;;;17.30;97293.40;;;;110795;1249;41945;-61
2022/04/16 07:38:01;;;;;;;10.30;4.10;;;;;17.40;97294.00;;;;110702;1250;42340;-59
2022/04/16 07:40:30;;;;;;;8.30;3.40;;;;;17.50;97291.80;;;;110755;1249;41254;-59
2022/04/16 07:43:03;;;;;;;10.50;4.90;;;;;17.66;97289.60;;;;110706;1250;42429;-59
2022/04/16 07:45:34;;;;;;;10.60;3.70;;;;;17.80;97287.20;;;;110797;1249;42236;-59
2022/04/16 07:48:06;;;;;;;13.50;4.00;;;;;17.80;97284.20;;;;110776;1250;41246;-59
2022/04/16 07:50:35;;;;;;;9.70;3.60;;;;;17.80;97282.60;;;;110833;1249;42428;-59
2022/04/16 07:53:06;;;;;;;8.40;3.50;;;;;17.88;97281.00;;;;110752;1249;41699;-59
2022/04/16 07:55:35;;;;;;;7.40;3.00;;;;;18.04;97278.00;;;;110802;1249;41271;-59
2022/04/16 07:58:05;;;;;;;9.60;3.30;;;;;18.30;97275.00;;;;110778;1250;41188;-60
2022/04/16 08:00:34;;;;;;;10.20;3.50;;;;;18.60;97271.40;;;;110851;1249;43951;-60
2022/04/16 08:03:03;;;;;;;9.60;3.20;;;;;18.80;97273.20;;;;110792;1249;41145;-60
2022/04/16 08:05:33;;;;;;;7.00;2.90;;;;;18.92;97277.00;;;;110854;1249;41152;-60
2022/04/16 08:08:04;;;;;;;9.00;3.00;;;;;19.20;97272.40;;;;110743;1249;41372;-60
2022/04/16 08:10:34;;;;;;;8.00;3.00;;;;;19.40;97272.00;;;;110712;1251;41150;-60
2022/04/16 08:13:07;;;;;;;6.30;2.70;;;;;19.50;97278.00;;;;110773;1249;41144;-60
2022/04/16 08:15:35;;;;;;;8.00;3.30;;;;;19.66;97271.60;;;;110760;1249;41636;-60
2022/04/16 08:18:05;;;;;;;7.90;3.00;;;;;19.80;97267.80;;;;110694;1249;41265;-60
2022/04/16 08:20:34;;;;;;;5.80;2.30;;;;;19.94;97265.80;;;;110825;1251;41904;-60
2022/04/16 08:23:06;;;;;;;7.10;2.60;;;;;20.14;97266.40;;;;110819;1249;42335;-60
2022/04/16 08:28:06;;;;;;;5.30;2.30;;;;;20.30;97264.60;;;;110663;1251;41146;-60
2022/04/16 08:30:35;;;;;;;8.90;2.70;;;;;20.34;97268.20;;;;110701;1251;41171;-60
2022/04/16 08:33:05;;;;;;;6.00;2.40;;;;;20.24;97266.00;;;;110786;1249;41144;-60
2022/04/16 08:35:34;;;;;;;5.90;2.40;;;;;20.10;97266.80;;;;110707;1251;41268;-59
2022/04/16 08:38:04;;;;;;;5.40;2.20;;;;;20.10;97267.80;;;;110719;1249;42251;-59
2022/04/16 08:40:32;;;;;;;6.20;2.60;;;;;20.20;97263.80;;;;110812;1250;41597;-60
2022/04/16 08:43:02;;;;;;;6.40;2.70;;;;;20.30;97255.00;;;;110704;1251;41444;-59
2022/04/16 08:45:34;;;;;;;5.10;2.30;;;;;20.40;97244.40;;;;110627;1252;41664;-59
2022/04/16 08:48:04;;;;;;;5.40;2.20;;;;;20.40;97243.00;;;;110725;1250;41188;-59
2022/04/16 08:50:34;;;;;;;4.30;1.90;;;;;20.50;97240.60;;;;110789;1249;41147;-59
2022/04/16 08:53:03;;;;;;;5.90;2.30;;;;;20.60;97234.80;;;;110814;1250;41697;-59
2022/04/16 08:55:32;;;;;;;4.80;2.00;;;;;20.70;97236.00;;;;110813;1250;41150;-59
2022/04/16 08:58:02;;;;;;;3.80;1.70;;;;;20.80;97230.20;;;;110755;1249;41405;-59
2022/04/16 09:00:31;;;;;;;3.50;1.70;;;;;21.04;97229.80;;;;110779;1250;42517;-59
2022/04/16 09:03:03;;;;;;;3.80;1.70;;;;;21.40;97224.20;;;;110763;1249;41549;-60
2022/04/16 09:05:33;;;;;;;6.90;2.30;;;;;21.70;97215.00;;;;110736;1249;41253;-59
2022/04/16 09:08:07;;;;;;;5.50;2.10;;;;;21.70;97222.40;;;;110758;1250;41629;-59
2022/04/16 09:10:39;;;;;;;4.10;1.80;;;;;21.68;97225.80;;;;110777;1250;41290;-59
2022/04/16 09:13:09;;;;;;;6.30;2.20;;;;;21.80;97223.20;;;;110828;1250;41198;-59
2022/04/16 09:15:38;;;;;;;4.40;1.90;;;;;22.30;97218.80;;;;110759;1249;41670;-60
2022/04/16 09:18:08;;;;;;;5.70;2.00;;;;;23.58;97212.20;;;;110759;1251;42381;-60
2022/04/16 09:20:39;;;;;;;4.10;1.80;;;;;25.18;97190.80;;;;110915;1249;41266;-60
2022/04/16 09:23:15;;;;;;;;;;;;;26.30;97197.60;;;;110858;1249;41198;-60
2022/04/16 09:25:45;;;;;;;4.80;1.70;;;;;26.30;97200.60;;;;110806;1249;41137;-60
2022/04/16 09:28:18;;;;;;;5.00;1.90;;;;;26.30;97203.80;;;;110836;1249;42164;-60
2022/04/16 09:30:58;;;;;;;5.40;2.10;;;;;26.80;97185.00;;;;110635;1252;41167;-60
2022/04/16 09:33:37;;;;;;;6.60;2.40;;;;;27.68;97184.20;;;;110858;1249;41142;-60
2022/04/16 09:36:06;;;;;;;4.40;1.80;;;;;27.70;97179.80;;;;110829;1250;41147;-60
2022/04/16 09:38:37;;;;;;;4.70;2.10;;;;;27.70;97168.00;;;;110850;1249;41355;-60
2022/04/16 09:41:08;;;;;;;3.50;1.60;;;;;27.86;97174.80;;;;110809;1250;41188;-60
2022/04/16 09:43:38;;;;;;;4.50;2.00;;;;;28.20;97171.00;;;;110793;1249;41736;-61
2022/04/16 09:46:11;;;;;;;5.40;1.90;;;;;29.02;97170.20;;;;110717;1249;41139;-60
2022/04/16 09:48:41;;;;;;;3.90;1.70;;;;;29.80;97173.60;;;;110697;1250;41178;-61
2022/04/16 09:51:11;;;;;;;5.20;2.00;;;;;29.66;97164.00;;;;110796;1250;41810;-59
2022/04/16 09:53:41;;;;;;;4.00;1.80;;;;;29.18;97172.20;;;;110760;1250;42324;-59
2022/04/16 09:56:11;;;;;;;4.40;1.80;;;;;28.92;97172.00;;;;110617;1252;41355;-61
2022/04/16 09:58:44;;;;;;;4.70;1.90;;;;;28.50;97166.40;;;;110640;1252;41428;-61
2022/04/16 10:01:14;;;;;;;4.50;1.90;;;;;28.58;97178.40;;;;110866;1250;41228;-61
2022/04/16 10:03:45;;;;;;;9.00;2.10;;;;;28.12;97181.20;;;;110812;1249;41837;-61
2022/04/16 10:06:15;;;;;;;5.20;2.30;;;;;27.58;97183.40;;;;110527;1252;41397;-61
2022/04/16 10:08:44;;;;;;;5.00;2.10;;;;;26.94;97178.00;;;;110735;1249;41504;-60
2022/04/16 10:11:20;;;;;;;5.50;2.20;;;;;26.40;97184.00;;;;110609;1252;41142;-60
2022/04/16 10:14:04;;;;;;;3.90;1.90;;;;;26.30;97173.80;;;;110760;1252;41136;-61
2022/04/16 10:16:40;;;;;;;4.50;1.70;;;;;26.66;97178.60;;;;110624;1250;41171;-61
2022/04/16 10:19:16;;;;;;;5.40;1.90;;;;;27.46;97173.80;;;;110792;1249;41164;-61
2022/04/16 10:21:45;;;;;;;3.40;1.60;;;;;28.94;97166.80;;;;110892;1249;41155;-61
2022/04/16 10:24:23;;;;;;;3.30;1.70;;;;;31.32;97157.60;;;;110819;1252;41164;-61
2022/04/16 10:27:03;;;;;;;5.70;2.00;;;;;33.06;97151.40;;;;110806;1249;42149;-61
2022/04/16 10:29:39;;;;;;;4.60;1.90;;;;;33.80;97147.20;;;;110649;1249;41159;-61
2022/04/16 10:32:16;;;;;;;3.90;1.80;;;;;34.28;97148.20;;;;110616;1252;41270;-61
2022/04/16 10:34:46;;;;;;;4.50;1.80;;;;;35.18;97138.60;;;;110824;1249;41270;-61
2022/04/16 10:37:23;;;;;;;4.60;2.00;;;;;36.20;97140.20;;;;110840;1250;41248;-59
2022/04/16 10:39:53;;;;;;;4.70;1.90;;;;;35.54;97108.20;;;;110772;1251;41990;-59
2022/04/16 10:42:32;;;;;;;5.40;1.90;;;;;35.02;97141.40;;;;110840;1249;41155;-59
2022/04/16 10:45:20;;;;;;;4.50;1.90;;;;;35.88;97126.40;;;;110775;1249;42399;-59
2022/04/16 10:47:51;;;;;;;4.00;1.60;;;;;36.22;97127.00;;;;110640;1252;41272;-59
2022/04/16 10:50:21;;;;;;;5.90;2.10;;;;;35.82;97140.20;;;;110759;1251;41621;-59
2022/04/16 10:52:57;;;;;;;4.40;1.70;;;;;34.36;97141.40;;;;110812;1249;41202;-59
2022/04/16 10:55:30;;;;;;;3.40;1.60;;;;;32.90;97128.80;;;;110650;1250;41722;-62
2022/04/16 10:58:05;;;;;;;6.20;1.90;;;;;33.00;97133.80;;;;110812;1252;41135;-60
2022/04/16 11:00:40;;;;;;;6.10;1.90;;;;;32.62;97136.80;;;;110810;1249;41202;-60
2022/04/16 11:03:11;;;;;;;4.30;2.00;;;;;31.92;97130.40;;;;110715;1249;42198;-60
2022/04/16 11:05:41;;;;;;;7.10;2.20;;;;;31.50;97127.40;;;;110746;1252;41136;-60
2022/04/16 11:08:17;;;;;;;3.80;1.60;;;;;31.48;97142.40;;;;110771;1250;41612;-60
2022/04/16 11:10:57;;;;;;;4.00;1.50;;;;;30.80;97147.80;;;;110823;1249;42215;-62
2022/04/16 11:13:36;;;;;;;4.60;1.70;;;;;30.02;97146.00;;;;110790;1250;41278;-62
2022/04/16 11:16:06;;;;;;;7.70;2.60;;;;;29.30;97142.00;;;;110819;1249;41263;-61
2022/04/16 11:18:43;;;;;;;9.40;2.00;;;;;28.34;97146.80;;;;110806;1251;41221;-61
2022/04/16 11:21:14;;;;;;;3.10;1.50;;;;;27.60;97151.80;;;;110631;1252;41610;-59
2022/04/16 11:23:47;;;;;;;3.40;1.50;;;;;27.06;97145.60;;;;110771;1252;41161;-60
2022/04/16 11:34:42;;;;;;;7.10;2.30;;;;;24.90;97167.60;;;;110812;1251;42005;-60
2022/04/16 11:37:32;;;;;;;3.40;1.80;;;;;24.42;97168.60;;;;110792;1249;41651;-60
2022/04/16 11:40:05;;;;;;;4.80;1.90;;;;;24.00;97170.80;;;;110615;1250;41793;-60
2022/04/16 11:42:35;;;;;;;4.50;1.90;;;;;23.72;97179.80;;;;110734;1249;41647;-61
2022/04/16 11:45:08;;;;;;;7.60;2.20;;;;;23.30;97190.80;;;;110813;1249;41159;-60
2022/04/16 11:47:37;;;;;;;6.40;2.00;;;;;22.74;97202.40;;;;110821;1249;42074;-60
2022/04/16 11:50:08;;;;;;;8.70;3.00;;;;;22.30;97216.40;;;;110786;1249;41972;-60
2022/04/16 11:52:38;;;;;;;9.60;3.20;;;;;21.08;97238.20;;;;110643;1252;41703;-60
2022/04/16 11:55:19;;;;;;;6.60;2.50;;;;;19.68;97259.80;;;;110809;1249;41962;-59
2022/04/16 11:57:52;;;;;;;7.40;2.70;;;;;18.88;97275.40;;;;110825;1249;41382;-59
2022/04/16 12:00:22;;;;;;;7.90;2.90;;;;;18.22;97299.40;;;;110754;1249;41159;-59
2022/04/16 12:02:54;;;;;;;;;;;;;17.80;97307.60;;;;110862;1249;42533;-60
2022/04/16 12:05:26;;;;;;;8.50;2.80;;;;;17.40;97322.20;;;;110812;1249;41385;-59
2022/04/16 12:07:55;;;;;;;6.80;2.80;;;;;17.20;97325.60;;;;110696;1250;41881;-59
2022/04/16 12:10:24;;;;;;;5.40;1.90;;;;;17.10;97329.60;;;;110790;1249;41608;-59
2022/04/16 12:12:54;;;;;;;3.90;1.60;;;;;17.00;97344.20;;;;110823;1250;41442;-59
2022/04/16 12:15:26;;;;;;;4.10;1.80;;;;;16.80;97338.60;;;;110815;1251;41198;-60
2022/04/16 12:17:57;;;;;;;3.50;1.60;;;;;16.70;97339.60;;;;110666;1252;41144;-60
2022/04/16 12:20:26;;;;;;;3.70;1.80;;;;;16.70;97338.20;;;;110619;1252;41159;-60
2022/04/16 12:22:58;;;;;;;3.20;1.70;;;;;16.60;97345.60;;;;110722;1251;41196;-60
2022/04/16 12:25:29;;;;;;;5.50;1.80;;;;;16.60;97346.00;;;;110808;1251;41598;-60
2022/04/16 12:28:00;;;;;;;5.30;1.90;;;;;16.68;97341.00;;;;110799;1249;41899;-60
2022/04/16 12:30:35;;;;;;;3.40;1.50;;;;;16.70;97332.60;;;;110746;1252;41648;-60
2022/04/16 12:33:07;;;;;;;4.70;1.70;;;;;16.90;97326.80;;;;110802;1249;41499;-60
2022/04/16 12:35:38;;;;;;;3.40;1.60;;;;;17.10;97328.60;;;;110824;1249;41624;-60
2022/04/16 12:38:10;;;;;;;4.60;1.90;;;;;17.20;97317.20;;;;110791;1249;41949;-60
2022/04/16 12:40:39;;;;;;;5.20;2.00;;;;;17.38;97309.00;;;;110732;1249;41898;-60
2022/04/16 12:43:08;;;;;;;4.70;1.90;;;;;17.40;97305.00;;;;110735;1250;41139;-60
2022/04/16 12:45:38;;;;;;;4.20;1.60;;;;;17.16;97305.20;;;;110756;1249;41273;-60
2022/04/16 12:48:08;;;;;;;6.20;2.20;;;;;17.10;97305.20;;;;110592;1249;41497;-60
2022/04/16 12:50:38;;;;;;;8.10;2.30;;;;;17.10;97301.40;;;;110794;1249;41866;-60